VAPO

Pune International

Airport
ICAO code
VAPO
Summary
ICAO Region
APAC
ICAO Territory
Location

Pune, Maharashtra,

Coordinates
18° 34' 53" N , 73° 55' 14" E
KCC
Airport WX
Cumulonimbus
Metar
Observation
VAPO 081730Z VRB01KT 4000 HZ SCT250 18/13 Q1016 NOSIG
Station
PUNE/POONA (IN-A
Date/Time
2022-12-08 17:30:00
Wind speed
01 kts
Lowest cloud amount
scattered clouds
Temperature
18°C
Dew point
13°C
Humidity
72%
QNH
1016 hPa
Weather condition
n/a

Description

Pune International Airport is located approximately 10 km north east of Pune in the state of Maharashtra, India. The airport, operated by the Airports Authority of India, shares its runway with Lohegaon Air Base.

Climatology

Tropical Savanna climate (Köppen climate classification Aw) - monthly mean temperatures above 18°C, and a pronounced dry season. A Tropical Savanna climate has more pronounced dry seasons than a Tropical Monsoon climate.

Runways

Designator Length Width Surface Rops
14/32 1796 46 ASP Yes/Yes
10/28 2539 46 ASP Yes/Yes

Airport map

Aerial View

SKYbrary Partners:

Safety knowledge contributed by: